Gravel Switch, Kentucky
Current Conditions -  °F | °C
As of 11:10 AM on Thursday 29 Jan 2015 (Local Time) from K6I2 Reporting Station
Scattered Clouds Scattered Clouds  
Wind Chill: 52°   Ceiling: Unl
Heat Index: 52°   Visibility: 10mi
Dew Point: 37°   Wind: 20mph
Humidity: 58%   Direction: 190°S
Pressure: 29.95"   Gusts: 31mph
Location:  37.58°N, 85.05°W
Report Text: K6I2 291610Z AUTO 19017G27KT 10SM SCT043 11/03 A2995 RMK AO2
Loading
Personal Weather Stations






























Interactive Weather Map New forecast layout! Learn more

10-Day Weather Forecast

Advertisements
Track Severe Weather on mobile